createdAt,value
2017-08-22T00:00:01.212Z,15.86
2017-08-22T00:01:10.169Z,15.87
2017-08-22T00:02:19.459Z,15.9
2017-08-22T00:03:28.733Z,15.89
2017-08-22T00:04:37.679Z,15.94
2017-08-22T00:05:46.638Z,15.89
2017-08-22T00:06:55.591Z,15.86
2017-08-22T00:08:04.538Z,15.9
2017-08-22T00:09:13.491Z,15.87
2017-08-22T00:10:22.774Z,15.87
2017-08-22T00:11:31.742Z,15.84
2017-08-22T00:12:40.700Z,15.78
2017-08-22T00:13:49.654Z,15.82
2017-08-22T00:14:58.605Z,15.78
2017-08-22T00:16:07.570Z,15.87
2017-08-22T00:17:16.851Z,15.75
2017-08-22T00:18:25.805Z,15.8
2017-08-22T00:19:34.762Z,15.83
2017-08-22T00:20:43.722Z,15.71
2017-08-22T00:21:52.689Z,15.74
2017-08-22T00:23:01.642Z,15.72
2017-08-22T00:24:10.596Z,15.69
2017-08-22T00:25:19.553Z,15.69
2017-08-22T00:26:28.508Z,15.74
2017-08-22T00:27:37.464Z,15.69
2017-08-22T00:28:46.423Z,15.68
2017-08-22T00:29:55.379Z,15.69
2017-08-22T00:31:04.339Z,15.72
2017-08-22T00:32:13.300Z,15.68
2017-08-22T00:33:22.250Z,15.72
2017-08-22T00:34:31.212Z,15.72
2017-08-22T00:35:40.158Z,15.67
2017-08-22T00:36:49.118Z,15.75
2017-08-22T00:37:58.400Z,15.74
2017-08-22T00:39:07.357Z,15.69
2017-08-22T00:40:16.303Z,15.74
2017-08-22T00:41:25.253Z,15.75
2017-08-22T00:42:34.526Z,15.8
2017-08-22T00:43:43.480Z,15.74
2017-08-22T00:44:52.448Z,15.78
2017-08-22T00:46:01.401Z,15.71
2017-08-22T00:47:10.358Z,15.72
2017-08-22T00:48:19.306Z,15.83
2017-08-22T00:49:28.267Z,15.84
2017-08-22T00:50:37.219Z,15.83
2017-08-22T00:51:46.494Z,15.78
2017-08-22T00:52:55.458Z,15.8
2017-08-22T00:54:04.407Z,15.8
2017-08-22T00:55:13.372Z,15.8
2017-08-22T00:56:22.328Z,15.8
2017-08-22T00:57:31.284Z,15.82
2017-08-22T00:58:40.237Z,15.76
2017-08-22T00:59:49.518Z,15.76
2017-08-22T01:00:58.468Z,15.78
2017-08-22T01:02:07.434Z,15.72
2017-08-22T01:03:16.402Z,15.72
2017-08-22T01:04:25.352Z,15.72
2017-08-22T01:05:34.649Z,15.69
2017-08-22T01:06:43.619Z,15.68
2017-08-22T01:07:52.573Z,15.68
2017-08-22T01:09:01.532Z,15.68
2017-08-22T01:10:10.496Z,15.68
2017-08-22T01:11:19.453Z,15.72
2017-08-22T01:12:28.413Z,15.65
2017-08-22T01:13:37.705Z,15.69
2017-08-22T01:14:46.661Z,15.71
2017-08-22T01:15:55.620Z,15.68
2017-08-22T01:17:04.576Z,15.68
2017-08-22T01:18:13.530Z,15.68
2017-08-22T01:19:22.480Z,15.57
2017-08-22T01:20:31.435Z,15.65
2017-08-22T01:21:40.397Z,15.67
2017-08-22T01:22:49.346Z,15.59
2017-08-22T01:23:58.307Z,15.56
2017-08-22T01:25:07.927Z,15.64
2017-08-22T01:26:16.888Z,15.62
2017-08-22T01:27:26.176Z,15.51
2017-08-22T01:28:35.133Z,15.46
2017-08-22T01:29:44.098Z,15.47
2017-08-22T01:30:53.049Z,15.46
2017-08-22T01:32:02.008Z,15.59
2017-08-22T01:33:10.962Z,15.47
2017-08-22T01:34:19.908Z,15.43
2017-08-22T01:35:28.859Z,15.44
2017-08-22T01:36:37.818Z,15.47
2017-08-22T01:37:47.098Z,15.51
2017-08-22T01:38:56.052Z,15.47
2017-08-22T01:40:05.008Z,15.51
2017-08-22T01:41:13.969Z,15.46
2017-08-22T01:42:22.923Z,15.49
2017-08-22T01:43:31.886Z,15.46
2017-08-22T01:44:40.846Z,15.46
2017-08-22T01:45:49.794Z,15.47
2017-08-22T01:46:59.081Z,15.43
2017-08-22T01:48:08.033Z,15.38
2017-08-22T01:49:16.990Z,15.5
2017-08-22T01:50:25.945Z,15.46
2017-08-22T01:51:34.901Z,15.38
2017-08-22T01:52:43.855Z,15.44
2017-08-22T01:53:52.814Z,15.38
2017-08-22T01:55:01.765Z,15.35
2017-08-22T01:56:10.731Z,15.35
2017-08-22T01:57:19.690Z,15.36
2017-08-22T01:58:28.642Z,15.35
2017-08-22T01:59:37.593Z,15.34
2017-08-22T02:00:46.549Z,15.28
2017-08-22T02:01:55.498Z,15.27
2017-08-22T02:03:04.452Z,15.2
2017-08-22T02:04:13.409Z,15.25
2017-08-22T02:05:22.684Z,15.17
2017-08-22T02:06:31.972Z,15.25
2017-08-22T02:07:40.929Z,15.27
2017-08-22T02:08:49.886Z,15.2
2017-08-22T02:09:58.836Z,15.19
2017-08-22T02:11:07.793Z,15.2
2017-08-22T02:12:16.743Z,15.23
2017-08-22T02:13:25.706Z,15.19
2017-08-22T02:14:34.658Z,15.2
2017-08-22T02:15:43.616Z,15.16
2017-08-22T02:16:52.569Z,15.13
2017-08-22T02:18:01.520Z,15.19
2017-08-22T02:19:10.799Z,15.2
2017-08-22T02:20:19.754Z,15.17
2017-08-22T02:21:28.708Z,15.14
2017-08-22T02:22:37.665Z,15.17
2017-08-22T02:23:46.615Z,15.16
2017-08-22T02:24:55.568Z,15.14
2017-08-22T02:26:04.524Z,15.19
2017-08-22T02:27:13.478Z,15.13
2017-08-22T02:28:22.424Z,15.17
2017-08-22T02:29:31.370Z,15.11
2017-08-22T02:30:40.329Z,15.11
2017-08-22T02:31:49.286Z,15.11
2017-08-22T02:32:58.239Z,15.17
2017-08-22T02:34:07.196Z,15.13
2017-08-22T02:35:16.187Z,15.09
2017-08-22T02:36:25.138Z,15.09
2017-08-22T02:37:34.086Z,15.14
2017-08-22T02:38:43.042Z,15.1
2017-08-22T02:39:52.007Z,15.1
2017-08-22T02:41:00.958Z,15.09
2017-08-22T02:42:10.253Z,15.06
2017-08-22T02:43:19.207Z,15.02
2017-08-22T02:44:28.172Z,15.03
2017-08-22T02:45:37.442Z,15.06
2017-08-22T02:46:46.392Z,15.01
2017-08-22T02:47:55.670Z,15.02
2017-08-22T02:49:04.722Z,14.99
2017-08-22T02:50:13.674Z,15.03
2017-08-22T02:51:22.635Z,14.99
2017-08-22T02:52:31.594Z,15.02
2017-08-22T02:53:40.555Z,15.03
2017-08-22T02:54:49.503Z,14.99
2017-08-22T02:55:58.445Z,15.01
2017-08-22T02:57:07.387Z,14.94
2017-08-22T02:58:16.344Z,14.99
2017-08-22T02:59:25.299Z,15.06
2017-08-22T03:00:34.258Z,15.02
2017-08-22T03:01:43.218Z,14.95
2017-08-22T03:02:52.170Z,14.96
2017-08-22T03:04:01.123Z,15.01
2017-08-22T03:05:10.403Z,15.02
2017-08-22T03:06:19.783Z,14.99
2017-08-22T03:07:28.746Z,14.94
2017-08-22T03:08:37.701Z,15.02
2017-08-22T03:09:46.647Z,15.02
2017-08-22T03:10:55.665Z,14.94
2017-08-22T03:12:04.658Z,15.01
2017-08-22T03:13:13.612Z,14.98
2017-08-22T03:14:22.584Z,14.96
2017-08-22T03:15:31.860Z,14.95
2017-08-22T03:16:40.816Z,14.94
2017-08-22T03:17:49.788Z,14.98
2017-08-22T03:18:58.732Z,14.98
2017-08-22T03:20:07.681Z,14.95
2017-08-22T03:21:16.636Z,14.95
2017-08-22T03:22:25.626Z,14.96
2017-08-22T03:23:34.580Z,14.99
2017-08-22T03:24:43.866Z,14.96
2017-08-22T03:25:52.819Z,14.94
2017-08-22T03:27:01.770Z,14.99
2017-08-22T03:28:10.826Z,14.99
2017-08-22T03:29:19.777Z,15.02
2017-08-22T03:30:31.767Z,15.02
2017-08-22T03:31:40.730Z,14.99
2017-08-22T03:32:49.687Z,14.95
2017-08-22T03:33:58.632Z,15.02
2017-08-22T03:35:07.583Z,14.91
2017-08-22T03:36:16.534Z,14.96
2017-08-22T03:37:25.487Z,14.98
2017-08-22T03:38:34.450Z,14.96
2017-08-22T03:39:43.410Z,15.02
2017-08-22T03:40:52.361Z,14.98
2017-08-22T03:42:01.648Z,15.02
2017-08-22T03:43:10.603Z,14.98
2017-08-22T03:44:19.556Z,14.96
2017-08-22T03:45:28.843Z,15.03
2017-08-22T03:46:37.798Z,14.94
2017-08-22T03:47:46.746Z,14.98
2017-08-22T03:48:55.703Z,14.99
2017-08-22T03:50:04.658Z,14.99
2017-08-22T03:51:13.609Z,14.95
2017-08-22T03:52:22.572Z,14.98
2017-08-22T03:53:31.844Z,14.96
2017-08-22T03:54:40.796Z,14.95
2017-08-22T03:55:49.745Z,14.91
2017-08-22T03:56:58.696Z,14.81
2017-08-22T03:58:07.983Z,14.91
2017-08-22T03:59:16.950Z,14.8
2017-08-22T04:00:26.245Z,14.84
2017-08-22T04:01:35.196Z,14.77
2017-08-22T04:02:44.151Z,14.8
2017-08-22T04:03:53.108Z,14.78
2017-08-22T04:05:02.066Z,14.8
2017-08-22T04:06:11.017Z,14.83
2017-08-22T04:07:19.994Z,14.84
2017-08-22T04:08:28.947Z,14.83
2017-08-22T04:09:37.902Z,14.83
2017-08-22T04:10:46.853Z,14.86
2017-08-22T04:11:55.820Z,14.77
2017-08-22T04:13:04.777Z,14.81
2017-08-22T04:14:13.722Z,14.86
2017-08-22T04:15:22.675Z,14.86
2017-08-22T04:16:31.628Z,14.84
2017-08-22T04:17:40.623Z,14.89
2017-08-22T04:18:49.580Z,14.83
2017-08-22T04:19:58.528Z,14.81
2017-08-22T04:21:07.479Z,14.83
2017-08-22T04:22:16.430Z,14.89
2017-08-22T04:23:25.384Z,14.81
2017-08-22T04:24:34.658Z,14.81
2017-08-22T04:25:43.610Z,14.84
2017-08-22T04:26:52.565Z,14.84
2017-08-22T04:28:01.526Z,14.81
2017-08-22T04:29:10.484Z,14.8
2017-08-22T04:30:19.432Z,14.8
2017-08-22T04:31:28.719Z,14.81
2017-08-22T04:32:37.988Z,14.86
2017-08-22T04:33:46.938Z,14.78
2017-08-22T04:34:55.890Z,14.78
2017-08-22T04:36:05.166Z,14.81
2017-08-22T04:37:14.125Z,14.8
2017-08-22T04:38:23.077Z,14.81
2017-08-22T04:39:32.033Z,14.81
2017-08-22T04:40:41.666Z,14.8
2017-08-22T04:41:50.943Z,14.77
2017-08-22T04:42:59.903Z,14.77
2017-08-22T04:44:08.870Z,14.73
2017-08-22T04:45:17.824Z,14.7
2017-08-22T04:46:26.774Z,14.72
2017-08-22T04:47:36.051Z,14.69
2017-08-22T04:48:45.032Z,14.78
2017-08-22T04:49:54.302Z,14.77
2017-08-22T04:51:03.263Z,14.84
2017-08-22T04:52:12.215Z,14.86
2017-08-22T04:53:21.178Z,14.72
2017-08-22T04:54:30.138Z,14.72
2017-08-22T04:55:39.094Z,14.81
2017-08-22T04:56:48.056Z,14.81
2017-08-22T04:57:57.011Z,14.69
2017-08-22T04:59:05.970Z,14.69
2017-08-22T05:00:14.917Z,14.77
2017-08-22T05:01:23.867Z,14.8
2017-08-22T05:02:32.830Z,14.7
2017-08-22T05:03:42.117Z,14.69
2017-08-22T05:04:51.070Z,14.78
2017-08-22T05:06:00.024Z,14.81
2017-08-22T05:07:08.978Z,14.81
2017-08-22T05:08:17.935Z,14.88
2017-08-22T05:09:26.899Z,14.81
2017-08-22T05:10:35.854Z,14.88
2017-08-22T05:11:44.807Z,14.84
2017-08-22T05:12:53.763Z,14.8
2017-08-22T05:14:02.716Z,14.8
2017-08-22T05:15:11.667Z,14.86
2017-08-22T05:16:20.620Z,14.89
2017-08-22T05:17:29.593Z,14.81
2017-08-22T05:18:38.547Z,14.92
2017-08-22T05:19:47.495Z,14.94
2017-08-22T05:20:56.454Z,14.92
2017-08-22T05:22:05.401Z,14.95
2017-08-22T05:23:14.353Z,14.96
2017-08-22T05:24:23.310Z,14.96
2017-08-22T05:25:32.262Z,14.98
2017-08-22T05:26:41.535Z,14.99
2017-08-22T05:27:50.805Z,15.03
2017-08-22T05:28:59.759Z,15.01
2017-08-22T05:30:08.704Z,15.03
2017-08-22T05:31:17.662Z,14.94
2017-08-22T05:32:26.613Z,14.99
2017-08-22T05:33:35.559Z,14.92
2017-08-22T05:34:44.517Z,15.02
2017-08-22T05:35:53.467Z,14.95
2017-08-22T05:37:02.420Z,14.95
2017-08-22T05:38:11.369Z,15.06
2017-08-22T05:39:20.318Z,15.03
2017-08-22T05:40:29.273Z,15.02
2017-08-22T05:41:38.226Z,15.02
2017-08-22T05:42:47.195Z,15.06
2017-08-22T05:43:56.497Z,15.03
2017-08-22T05:45:05.469Z,15.01
2017-08-22T05:46:14.437Z,15.03
2017-08-22T05:47:23.401Z,15.1
2017-08-22T05:48:32.352Z,15.03
2017-08-22T05:49:41.301Z,15.01
2017-08-22T05:50:50.256Z,15.02
2017-08-22T05:51:59.211Z,15.07
2017-08-22T05:53:08.162Z,15.06
2017-08-22T05:54:17.129Z,15.02
2017-08-22T05:55:26.089Z,14.99
2017-08-22T05:56:35.067Z,15.06
2017-08-22T05:57:44.014Z,15.14
2017-08-22T05:58:52.962Z,15.17
2017-08-22T06:00:02.245Z,15.17
2017-08-22T06:01:11.211Z,15.14
2017-08-22T06:02:20.165Z,15.28
2017-08-22T06:03:29.118Z,15.21
2017-08-22T06:04:38.062Z,15.2
2017-08-22T06:05:47.007Z,15.27
2017-08-22T06:06:55.952Z,15.19
2017-08-22T06:08:04.897Z,15.28
2017-08-22T06:09:13.842Z,15.28
2017-08-22T06:10:23.123Z,15.32
2017-08-22T06:11:32.084Z,15.32
2017-08-22T06:12:41.049Z,15.36
2017-08-22T06:13:50.002Z,15.43
2017-08-22T06:14:58.959Z,15.31
2017-08-22T06:16:07.919Z,15.51
2017-08-22T06:17:16.869Z,15.47
2017-08-22T06:18:25.821Z,15.49
2017-08-22T06:19:34.768Z,15.59
2017-08-22T06:20:43.723Z,15.54
2017-08-22T06:21:52.683Z,15.53
2017-08-22T06:23:01.650Z,15.56
2017-08-22T06:24:10.932Z,15.59
2017-08-22T06:25:19.900Z,15.64
2017-08-22T06:26:28.846Z,15.59
2017-08-22T06:27:37.814Z,15.67
2017-08-22T06:28:46.772Z,15.71
2017-08-22T06:29:56.052Z,15.65
2017-08-22T06:31:05.023Z,15.62
2017-08-22T06:32:13.974Z,15.74
2017-08-22T06:33:22.920Z,15.71
2017-08-22T06:34:31.878Z,15.72
2017-08-22T06:35:41.157Z,15.71
2017-08-22T06:36:50.106Z,15.74
2017-08-22T06:37:59.064Z,15.75
2017-08-22T06:39:08.010Z,15.8
2017-08-22T06:40:16.961Z,15.78
2017-08-22T06:41:25.920Z,15.83
2017-08-22T06:42:34.877Z,15.83
2017-08-22T06:43:43.834Z,15.83
2017-08-22T06:44:52.804Z,15.89
2017-08-22T06:46:01.801Z,15.9
2017-08-22T06:47:10.749Z,15.89
2017-08-22T06:48:19.706Z,15.94
2017-08-22T06:49:28.658Z,15.97
2017-08-22T06:50:37.937Z,16.04
2017-08-22T06:51:46.900Z,15.96
2017-08-22T06:52:56.185Z,16.14
2017-08-22T06:54:05.473Z,16.17
2017-08-22T06:55:14.426Z,16.09
2017-08-22T06:56:23.382Z,16.12
2017-08-22T06:57:32.332Z,16.15
2017-08-22T06:58:41.629Z,16.11
2017-08-22T06:59:50.583Z,16.12
2017-08-22T07:00:59.554Z,16.15
2017-08-22T07:02:08.513Z,16.2
2017-08-22T07:03:17.468Z,16.21
2017-08-22T07:04:26.430Z,16.31
2017-08-22T07:05:35.389Z,16.35
2017-08-22T07:06:44.346Z,16.34
2017-08-22T07:07:53.302Z,16.42
2017-08-22T07:09:02.247Z,16.42
2017-08-22T07:10:11.195Z,16.43
2017-08-22T07:11:20.147Z,16.43
2017-08-22T07:12:29.101Z,16.48
2017-08-22T07:13:38.056Z,16.49
2017-08-22T07:14:47.008Z,16.56
2017-08-22T07:15:55.969Z,16.58
2017-08-22T07:17:04.925Z,16.6
2017-08-22T07:18:13.884Z,16.68
2017-08-22T07:19:22.841Z,16.68
2017-08-22T07:20:32.123Z,16.7
2017-08-22T07:21:41.077Z,16.71
2017-08-22T07:22:50.037Z,16.68
2017-08-22T07:23:58.998Z,16.68
2017-08-22T07:25:07.954Z,16.75
2017-08-22T07:26:16.910Z,16.75
2017-08-22T07:27:25.869Z,16.83
2017-08-22T07:28:35.145Z,16.78
2017-08-22T07:29:44.093Z,16.79
2017-08-22T07:30:53.047Z,16.81
2017-08-22T07:32:02.323Z,16.78
2017-08-22T07:33:11.281Z,16.88
2017-08-22T07:34:20.237Z,16.85
2017-08-22T07:35:29.188Z,16.88
2017-08-22T07:36:38.137Z,16.85
2017-08-22T07:37:47.090Z,16.85
2017-08-22T07:38:56.368Z,16.94
2017-08-22T07:40:05.647Z,16.94
2017-08-22T07:41:14.952Z,17.08
2017-08-22T07:42:24.236Z,17.11
2017-08-22T07:43:33.190Z,17.18
2017-08-22T07:44:42.140Z,17.16
2017-08-22T07:45:51.089Z,17.16
2017-08-22T07:47:00.039Z,17.15
2017-08-22T07:48:08.995Z,17.16
2017-08-22T07:49:17.961Z,17.16
2017-08-22T07:50:26.911Z,17.25
2017-08-22T07:51:35.868Z,17.26
2017-08-22T07:52:44.829Z,17.22
2017-08-22T07:53:54.119Z,17.34
2017-08-22T07:55:03.412Z,17.33
2017-08-22T07:56:12.694Z,17.41
2017-08-22T07:57:21.648Z,17.46
2017-08-22T07:58:30.606Z,17.37
2017-08-22T07:59:39.568Z,17.38
2017-08-22T08:00:48.521Z,17.37
2017-08-22T08:01:57.479Z,17.4
2017-08-22T08:03:06.441Z,17.4
2017-08-22T08:04:15.731Z,17.46
2017-08-22T08:05:24.682Z,17.46
2017-08-22T08:06:33.639Z,17.49
2017-08-22T08:07:42.598Z,17.46
2017-08-22T08:08:51.555Z,17.46
2017-08-22T08:10:00.509Z,17.52
2017-08-22T08:11:09.462Z,17.52
2017-08-22T08:12:18.419Z,17.51
2017-08-22T08:13:27.692Z,17.48
2017-08-22T08:14:36.649Z,17.51
2017-08-22T08:15:45.605Z,17.51
2017-08-22T08:16:54.564Z,17.52
2017-08-22T08:18:03.516Z,17.51
2017-08-22T08:19:12.485Z,17.55
2017-08-22T08:20:21.445Z,17.48
2017-08-22T08:21:30.409Z,17.51
2017-08-22T08:22:39.412Z,17.54
2017-08-22T08:23:48.371Z,17.46
2017-08-22T08:24:57.322Z,17.48
2017-08-22T08:26:06.600Z,17.51
2017-08-22T08:27:15.561Z,17.51
2017-08-22T08:28:24.514Z,17.51
2017-08-22T08:29:33.472Z,17.51
2017-08-22T08:30:42.423Z,17.48
2017-08-22T08:31:51.377Z,17.48
2017-08-22T08:33:00.342Z,17.54
2017-08-22T08:34:09.295Z,17.48
2017-08-22T08:35:18.245Z,17.55
2017-08-22T08:36:27.195Z,17.51
2017-08-22T08:37:36.145Z,17.49
2017-08-22T08:38:45.126Z,17.48
2017-08-22T08:39:54.078Z,17.55
2017-08-22T08:41:03.033Z,17.52
2017-08-22T08:42:12.325Z,17.48
2017-08-22T08:43:21.285Z,17.54
2017-08-22T08:44:30.244Z,17.51
2017-08-22T08:45:39.203Z,17.48
2017-08-22T08:46:48.156Z,17.44
2017-08-22T08:47:57.110Z,17.52
2017-08-22T08:49:06.061Z,17.49
2017-08-22T08:50:15.015Z,17.52
2017-08-22T08:51:23.966Z,17.55
2017-08-22T08:52:33.572Z,17.58
2017-08-22T08:53:42.530Z,17.56
2017-08-22T08:54:51.485Z,17.62
2017-08-22T08:56:00.438Z,17.59
2017-08-22T08:57:09.395Z,17.62
2017-08-22T08:58:18.356Z,17.62
2017-08-22T08:59:27.303Z,17.64
2017-08-22T09:00:36.587Z,17.66
2017-08-22T09:01:45.876Z,17.71
2017-08-22T09:02:54.826Z,17.74
2017-08-22T09:04:03.785Z,17.62
2017-08-22T09:05:12.749Z,17.72
2017-08-22T15:50:59.259Z,19.32
2017-08-22T15:52:08.166Z,19.26
2017-08-22T15:53:17.290Z,19.29
2017-08-22T15:54:27.194Z,19.21
2017-08-22T15:55:36.483Z,19.22
2017-08-22T15:56:46.464Z,19.21
2017-08-22T15:58:02.352Z,19.22
2017-08-22T15:59:12.188Z,19.28
2017-08-22T16:00:21.675Z,19.19
2017-08-22T16:01:31.670Z,19.29
2017-08-22T16:02:41.926Z,19.28
2017-08-22T16:03:51.567Z,19.14
2017-08-22T16:05:01.822Z,19.28
2017-08-22T16:06:11.856Z,19.29
2017-08-22T16:07:21.653Z,19.29
2017-08-22T16:44:20.977Z,18.99
2017-08-22T16:45:30.381Z,19
2017-08-22T16:46:40.454Z,18.98
2017-08-22T16:47:49.865Z,18.99
2017-08-22T16:48:59.031Z,18.92
2017-08-22T16:50:08.866Z,18.98
